createdAt,value
2019-04-20T00:00:41.691Z,10.50
2019-04-20T00:03:05.688Z,10.60
2019-04-20T00:05:33.014Z,10.54
2019-04-20T00:08:01.208Z,10.56
2019-04-20T00:10:28.942Z,10.52
2019-04-20T00:13:09.063Z,10.41
2019-04-20T00:15:24.201Z,10.31
2019-04-20T00:17:55.049Z,10.23
2019-04-20T00:20:24.159Z,10.36
2019-04-20T00:23:05.830Z,10.32
2019-04-20T00:25:46.153Z,10.17
2019-04-20T00:28:19.930Z,10.01
2019-04-20T00:30:48.045Z,9.93
2019-04-20T00:33:07.771Z,9.88
2019-04-20T00:35:25.184Z,9.78
2019-04-20T00:37:51.380Z,9.68
2019-04-20T00:40:17.504Z,9.58
2019-04-20T00:42:48.871Z,9.65
2019-04-20T00:45:20.451Z,9.79
2019-04-20T00:47:48.950Z,9.89
2019-04-20T00:50:25.657Z,9.99
2019-04-20T00:52:51.438Z,10.01
2019-04-20T00:55:06.347Z,9.88
2019-04-20T00:57:41.869Z,9.61
2019-04-20T01:00:17.626Z,9.33
2019-04-20T01:02:40.676Z,9.23
2019-04-20T01:05:15.591Z,9.15
2019-04-20T01:07:37.747Z,9.06
2019-04-20T01:09:54.110Z,9.12
2019-04-20T01:12:25.915Z,9.16
2019-04-20T01:14:55.191Z,9.09
2019-04-20T01:17:16.519Z,9.06
2019-04-20T01:19:42.640Z,9.05
2019-04-20T01:22:13.550Z,9.13
2019-04-20T01:24:43.245Z,9.12
2019-04-20T01:27:11.196Z,9.16
2019-04-20T01:29:41.120Z,9.26
2019-04-20T01:32:10.563Z,9.29
2019-04-20T01:34:41.836Z,9.30
2019-04-20T01:37:14.696Z,9.07
2019-04-20T01:39:34.623Z,9.02
2019-04-20T01:41:54.255Z,9.02
2019-04-20T01:44:26.107Z,8.95
2019-04-20T01:46:54.868Z,8.97
2019-04-20T01:49:25.607Z,9.09
2019-04-20T01:51:57.699Z,9.06
2019-04-20T01:54:34.026Z,8.98
2019-04-20T01:56:54.908Z,8.89
2019-04-20T01:59:22.812Z,8.74
2019-04-20T02:01:42.874Z,8.62
2019-04-20T02:04:17.170Z,8.60
2019-04-20T02:06:43.428Z,8.60
2019-04-20T02:09:11.938Z,8.53
2019-04-20T02:11:38.223Z,8.51
2019-04-20T02:14:05.609Z,8.43
2019-04-20T02:16:58.365Z,8.35
2019-04-20T02:19:32.154Z,8.23
2019-04-20T02:22:01.521Z,8.09
2019-04-20T02:24:14.836Z,7.95
2019-04-20T02:26:43.021Z,7.90
2019-04-20T02:29:32.439Z,7.80
2019-04-20T02:34:40.241Z,7.78
2019-04-20T02:39:37.551Z,7.79
2019-04-20T02:44:31.923Z,7.97
2019-04-20T02:47:19.458Z,7.91
2019-04-20T02:49:42.690Z,7.78
2019-04-20T02:51:56.696Z,8.02
2019-04-20T02:54:18.558Z,8.15
2019-04-20T02:57:01.757Z,8.25
2019-04-20T02:59:53.319Z,7.77
2019-04-20T03:01:36.655Z,7.07
2019-04-20T03:03:51.016Z,6.69
2019-04-20T03:06:26.458Z,6.66
2019-04-20T03:09:09.018Z,6.66
2019-04-20T03:11:45.205Z,6.69
2019-04-20T03:13:57.867Z,6.73
2019-04-20T03:16:45.458Z,6.77
2019-04-20T03:19:12.977Z,6.89
2019-04-20T03:21:47.962Z,6.88
2019-04-20T03:24:22.008Z,6.98
2019-04-20T03:26:36.500Z,6.70
2019-04-20T03:29:03.983Z,6.47
2019-04-20T03:31:54.162Z,6.72
2019-04-20T03:34:37.608Z,6.85
2019-04-20T03:36:43.003Z,6.85
2019-04-20T03:38:57.404Z,6.76
2019-04-20T03:41:19.604Z,6.60
2019-04-20T03:43:37.125Z,6.43
2019-04-20T03:46:08.203Z,6.43
2019-04-20T03:48:50.280Z,6.51
2019-04-20T03:51:23.558Z,6.65
2019-04-20T03:53:43.358Z,6.90
2019-04-20T03:56:19.554Z,7.27
2019-04-20T03:58:43.465Z,7.33
2019-04-20T04:01:12.603Z,7.49
2019-04-20T04:03:47.285Z,7.46
2019-04-20T04:06:02.881Z,7.12
2019-04-20T04:08:26.628Z,7.08
2019-04-20T04:11:02.638Z,6.96
2019-04-20T04:13:16.654Z,6.54
2019-04-20T04:15:50.269Z,6.26
2019-04-20T04:18:21.855Z,6.16
2019-04-20T04:20:50.046Z,6.21
2019-04-20T04:23:32.322Z,6.15
2019-04-20T04:25:55.694Z,6.17
2019-04-20T04:28:27.658Z,6.22
2019-04-20T04:30:57.950Z,6.38
2019-04-20T04:35:47.896Z,6.66
2019-04-20T04:38:23.643Z,6.51
2019-04-20T04:40:56.918Z,6.50
2019-04-20T04:43:15.817Z,6.81
2019-04-20T04:45:26.823Z,7.16
2019-04-20T04:47:51.972Z,7.44
2019-04-20T04:50:23.276Z,7.72
2019-04-20T04:52:57.416Z,7.90
2019-04-20T04:55:27.583Z,8.04
2019-04-20T04:57:43.343Z,8.18
2019-04-20T05:00:16.578Z,8.25
2019-04-20T05:02:45.093Z,8.14
2019-04-20T05:05:32.339Z,8.58
2019-04-20T05:07:49.299Z,8.70
2019-04-20T05:10:05.723Z,8.71
2019-04-20T05:12:34.167Z,8.75
2019-04-20T05:15:08.997Z,8.94
2019-04-20T05:17:50.759Z,9.30
2019-04-20T05:20:15.095Z,9.58
2019-04-20T05:22:47.039Z,9.89
2019-04-20T05:25:10.868Z,10.34
2019-04-20T05:27:44.106Z,10.72
2019-04-20T05:29:50.878Z,10.86
2019-04-20T05:32:29.465Z,11.08
2019-04-20T05:35:12.369Z,11.25
2019-04-20T05:37:53.055Z,11.14
2019-04-20T05:40:09.383Z,11.61
2019-04-20T05:42:31.227Z,12.10
2019-04-20T05:44:55.705Z,12.90
2019-04-20T05:47:27.294Z,13.12
2019-04-20T05:49:49.972Z,13.53
2019-04-20T05:52:39.095Z,14.06
2019-04-20T05:54:51.188Z,14.87
2019-04-20T05:57:36.176Z,15.20
2019-04-20T06:00:12.615Z,15.72
2019-04-20T06:02:32.270Z,15.92
2019-04-20T06:05:05.636Z,16.01
2019-04-20T06:07:31.438Z,15.98
2019-04-20T06:10:00.592Z,15.91
2019-04-20T06:12:25.440Z,16.05
2019-04-20T06:14:46.810Z,16.78
2019-04-20T06:17:25.562Z,18.02
2019-04-20T06:19:56.028Z,18.05
2019-04-20T06:22:27.202Z,17.37
2019-04-20T06:24:55.265Z,17.24
2019-04-20T06:27:16.039Z,17.55
2019-04-20T06:29:42.613Z,19.03
2019-04-20T06:32:17.531Z,18.91
2019-04-20T06:34:37.724Z,18.48
2019-04-20T06:37:02.571Z,18.03
2019-04-20T06:39:40.337Z,18.68
2019-04-20T06:44:32.053Z,19.87
2019-04-20T06:47:03.094Z,20.15
2019-04-20T06:49:33.202Z,19.20
2019-04-20T06:51:53.171Z,19.07
2019-04-20T06:54:12.335Z,18.41
2019-04-20T06:56:54.470Z,17.63
2019-04-20T06:59:26.514Z,18.13
2019-04-20T07:01:57.005Z,17.80
2019-04-20T07:04:37.713Z,17.60
2019-04-20T07:06:50.581Z,17.35
2019-04-20T07:09:14.147Z,17.03
2019-04-20T07:11:44.072Z,16.77
2019-04-20T07:13:55.625Z,16.57
2019-04-20T07:16:36.247Z,16.88
2019-04-20T07:19:07.842Z,17.24
2019-04-20T07:21:46.374Z,17.28
2019-04-20T07:24:04.719Z,17.58
2019-04-20T07:26:29.075Z,18.01
2019-04-20T07:28:59.033Z,18.29
2019-04-20T07:31:24.642Z,18.59
2019-04-20T07:33:52.217Z,18.79
2019-04-20T07:36:27.976Z,18.50
2019-04-20T07:38:56.719Z,18.35
2019-04-20T07:41:26.335Z,18.31
2019-04-20T07:43:54.134Z,18.27
2019-04-20T07:46:21.901Z,18.22
2019-04-20T07:48:36.557Z,18.43
2019-04-20T07:50:58.178Z,18.53
2019-04-20T07:53:34.376Z,18.68
2019-04-20T07:56:04.870Z,18.83
2019-04-20T07:58:25.193Z,18.96
2019-04-20T08:01:07.922Z,18.87
2019-04-20T08:05:52.863Z,19.25
2019-04-20T08:08:42.233Z,19.29
2019-04-20T08:10:55.364Z,19.70
2019-04-20T08:13:33.405Z,19.82
2019-04-20T08:16:03.079Z,19.67
2019-04-20T08:18:27.820Z,19.61
2019-04-20T08:20:52.894Z,19.58
2019-04-20T08:23:17.047Z,19.92
2019-04-20T08:25:38.848Z,20.06
2019-04-20T08:27:52.972Z,20.08
2019-04-20T08:30:33.647Z,20.17
2019-04-20T08:33:06.622Z,20.22
2019-04-20T08:35:39.266Z,19.96
2019-04-20T08:38:24.168Z,19.95
2019-04-20T08:40:34.232Z,19.96
2019-04-20T08:43:14.793Z,20.12
2019-04-20T08:45:36.159Z,20.19
2019-04-20T08:48:03.038Z,20.38
2019-04-20T08:50:42.716Z,20.79
2019-04-20T08:55:26.632Z,21.38
2019-04-20T08:57:33.587Z,21.09
2019-04-20T09:00:03.147Z,21.28
2019-04-20T09:02:30.303Z,21.19
2019-04-20T09:05:03.191Z,21.08
2019-04-20T09:07:29.903Z,21.08
2019-04-20T09:10:16.599Z,21.24
2019-04-20T09:12:40.881Z,21.30
2019-04-20T09:14:50.725Z,21.47
2019-04-20T09:17:27.183Z,21.17
2019-04-20T09:19:55.880Z,21.28
2019-04-20T09:22:24.388Z,21.57
2019-04-20T09:25:16.494Z,21.73
2019-04-20T09:27:21.865Z,21.62
2019-04-20T09:29:54.943Z,21.77
2019-04-20T09:35:06.674Z,21.90
2019-04-20T09:37:41.228Z,22.00
2019-04-20T09:40:11.385Z,21.63
2019-04-20T09:42:15.399Z,21.65
2019-04-20T09:44:46.080Z,21.88
2019-04-20T09:47:11.000Z,21.93
2019-04-20T09:49:49.810Z,21.94
2019-04-20T09:52:21.230Z,22.04
2019-04-20T09:54:52.442Z,22.19
2019-04-20T09:57:21.771Z,22.43
2019-04-20T09:59:51.295Z,22.28
2019-04-20T10:02:07.829Z,22.48
2019-04-20T10:04:29.091Z,22.48
2019-04-20T10:07:00.066Z,22.38
2019-04-20T10:09:30.580Z,22.63
2019-04-20T10:11:53.250Z,22.87
2019-04-20T10:14:20.064Z,22.87
2019-04-20T10:16:47.423Z,22.82
2019-04-20T10:19:13.846Z,22.52
2019-04-20T10:21:41.514Z,22.51
2019-04-20T10:24:08.552Z,22.66
2019-04-20T10:26:34.837Z,23.02
2019-04-20T10:29:01.527Z,22.90
2019-04-20T10:31:28.566Z,22.77
2019-04-20T10:33:55.770Z,22.56
2019-04-20T10:36:21.962Z,22.64
2019-04-20T10:38:48.530Z,22.48
2019-04-20T10:41:27.766Z,22.32
2019-04-20T10:43:42.890Z,22.69
2019-04-20T10:46:09.031Z,22.95
2019-04-20T10:48:41.363Z,23.50
2019-04-20T10:51:03.365Z,23.66
2019-04-20T10:53:30.052Z,23.77
2019-04-20T10:55:57.641Z,23.77
2019-04-20T10:58:25.224Z,23.81
2019-04-20T11:00:51.913Z,23.62
2019-04-20T11:03:19.648Z,23.55
2019-04-20T11:05:46.861Z,23.76
2019-04-20T11:08:14.730Z,23.91
2019-04-20T11:10:55.694Z,23.83
2019-04-20T11:13:11.707Z,24.14
2019-04-20T11:15:38.818Z,24.09
2019-04-20T11:18:05.491Z,24.13
2019-04-20T11:20:33.101Z,24.01
2019-04-20T11:23:00.244Z,23.93
2019-04-20T11:25:26.627Z,23.86
2019-04-20T11:27:52.645Z,23.78
2019-04-20T11:30:20.286Z,23.86
2019-04-20T11:32:46.539Z,23.83
2019-04-20T11:35:22.934Z,23.42
2019-04-20T11:37:41.047Z,22.62
2019-04-20T11:40:08.675Z,22.54
2019-04-20T11:42:37.426Z,22.66
2019-04-20T11:45:08.666Z,22.91
2019-04-20T11:47:35.637Z,23.21
2019-04-20T11:52:53.144Z,22.77
2019-04-20T11:55:20.181Z,23.04
2019-04-20T11:57:47.185Z,22.76
2019-04-20T12:00:15.081Z,23.12
2019-04-20T12:02:44.116Z,23.54
2019-04-20T12:05:21.164Z,23.28
2019-04-20T12:08:01.099Z,23.10
2019-04-20T12:10:28.302Z,23.50
2019-04-20T12:12:55.894Z,24.01
2019-04-20T12:15:22.489Z,24.06
2019-04-20T12:17:49.498Z,23.78
2019-04-20T12:20:16.704Z,24.21
2019-04-20T12:22:46.247Z,24.53
2019-04-20T12:25:35.879Z,24.19
2019-04-20T12:28:02.315Z,23.99
2019-04-20T12:30:30.004Z,24.26
2019-04-20T12:33:00.001Z,24.38
2019-04-20T12:35:24.562Z,24.12
2019-04-20T12:37:51.351Z,24.25
2019-04-20T12:40:19.922Z,24.27
2019-04-20T12:42:46.631Z,24.17
2019-04-20T12:45:35.622Z,24.28
2019-04-20T12:48:01.971Z,23.90
2019-04-20T12:50:29.735Z,23.55
2019-04-20T12:52:56.736Z,24.06
2019-04-20T12:55:23.122Z,24.12
2019-04-20T12:57:50.319Z,23.55
2019-04-20T13:00:17.826Z,23.79
2019-04-20T13:02:45.317Z,23.81
2019-04-20T13:05:13.491Z,23.72
2019-04-20T13:07:47.319Z,23.59
2019-04-20T13:10:11.568Z,23.31
2019-04-20T13:12:38.586Z,23.57
2019-04-20T13:15:08.632Z,23.40
2019-04-20T13:17:34.831Z,23.61
2019-04-20T13:20:00.852Z,23.78
2019-04-20T13:22:27.487Z,23.89
2019-04-20T13:24:54.986Z,23.97
2019-04-20T13:27:22.835Z,23.94
2019-04-20T13:29:51.349Z,23.80
2019-04-20T13:32:18.087Z,23.57
2019-04-20T13:34:44.574Z,24.04
2019-04-20T13:37:10.699Z,24.09
2019-04-20T13:39:36.917Z,24.27
2019-04-20T13:42:10.298Z,24.40
2019-04-20T13:44:32.683Z,24.17
2019-04-20T13:46:58.981Z,23.73
2019-04-20T13:49:25.222Z,23.71
2019-04-20T13:51:51.650Z,23.55
2019-04-20T13:54:23.939Z,22.97
2019-04-20T13:56:48.029Z,23.52
2019-04-20T13:59:14.303Z,23.47
2019-04-20T14:01:41.162Z,23.67
2019-04-20T14:04:08.494Z,23.87
2019-04-20T14:06:35.361Z,23.42
2019-04-20T14:09:01.792Z,23.78
2019-04-20T14:11:29.763Z,23.86
2019-04-20T14:14:00.231Z,23.54
2019-04-20T14:16:25.110Z,23.45
2019-04-20T14:18:53.211Z,23.55
2019-04-20T14:21:20.380Z,23.65
2019-04-20T14:23:46.730Z,23.78
2019-04-20T14:26:12.880Z,23.94
2019-04-20T14:28:39.188Z,23.82
2019-04-20T14:31:05.778Z,23.97
2019-04-20T14:33:32.760Z,23.81
2019-04-20T14:35:59.155Z,23.70
2019-04-20T14:38:26.428Z,23.94
2019-04-20T14:40:52.667Z,23.91
2019-04-20T14:43:19.361Z,23.95
2019-04-20T14:45:46.967Z,23.84
2019-04-20T14:48:13.294Z,23.35
2019-04-20T14:50:39.639Z,23.12
2019-04-20T14:53:07.327Z,23.21
2019-04-20T14:55:33.643Z,23.15
2019-04-20T14:57:59.858Z,23.06
2019-04-20T15:00:44.117Z,23.38
2019-04-20T15:03:10.548Z,23.58
2019-04-20T15:05:41.187Z,23.57
2019-04-20T15:08:08.921Z,23.92
2019-04-20T15:10:36.497Z,23.99
2019-04-20T15:13:05.132Z,23.90
2019-04-20T15:15:32.497Z,23.84
2019-04-20T15:17:59.693Z,23.88
2019-04-20T15:20:26.019Z,23.83
2019-04-20T15:22:53.779Z,23.99
2019-04-20T15:25:21.046Z,24.08
2019-04-20T15:27:48.191Z,23.88
2019-04-20T15:30:16.161Z,23.41
2019-04-20T15:32:43.081Z,23.36
2019-04-20T15:35:09.422Z,23.30
2019-04-20T15:37:35.440Z,23.50
2019-04-20T15:40:03.312Z,23.34
2019-04-20T15:42:29.607Z,23.53
2019-04-20T15:44:55.761Z,23.37
2019-04-20T15:47:22.346Z,23.57
2019-04-20T15:49:49.803Z,23.33
2019-04-20T15:52:25.506Z,23.39
2019-04-20T15:54:47.605Z,23.43
2019-04-20T15:57:18.376Z,23.35
2019-04-20T15:59:42.260Z,23.29
2019-04-20T16:02:09.398Z,23.26
2019-04-20T16:04:39.427Z,23.00
2019-04-20T16:07:03.497Z,22.73
2019-04-20T16:09:31.621Z,22.69
2019-04-20T16:12:06.787Z,22.60
2019-04-20T16:14:35.415Z,22.56
2019-04-20T16:17:05.027Z,22.21
2019-04-20T16:19:40.520Z,22.32
2019-04-20T16:21:57.849Z,22.36
2019-04-20T16:24:26.113Z,22.33
2019-04-20T16:26:51.873Z,22.15
2019-04-20T16:29:17.925Z,22.11
2019-04-20T16:31:46.689Z,22.02
2019-04-20T16:34:13.588Z,21.83
2019-04-20T16:36:51.802Z,21.75
2019-04-20T16:39:18.518Z,21.83
2019-04-20T16:41:44.878Z,21.74
2019-04-20T16:44:11.402Z,21.66
2019-04-20T16:46:38.338Z,21.66
2019-04-20T16:49:05.236Z,21.44
2019-04-20T16:51:32.754Z,21.39
2019-04-20T16:53:59.502Z,21.50
2019-04-20T16:56:26.524Z,21.25
2019-04-20T16:59:04.003Z,21.22
2019-04-20T17:01:28.107Z,21.03
2019-04-20T17:04:05.021Z,20.96
2019-04-20T17:06:34.106Z,20.78
2019-04-20T17:09:01.031Z,20.67
2019-04-20T17:11:29.989Z,20.36
2019-04-20T17:13:59.560Z,20.37
2019-04-20T17:16:25.687Z,20.38
2019-04-20T17:18:59.626Z,20.28
2019-04-20T17:21:28.959Z,20.13
2019-04-20T17:23:55.429Z,20.15
2019-04-20T17:26:23.232Z,20.21
2019-04-20T17:28:52.473Z,20.08
2019-04-20T17:31:19.774Z,19.65
2019-04-20T17:33:58.950Z,19.48
2019-04-20T17:36:22.793Z,19.30
2019-04-20T17:38:52.558Z,19.40
2019-04-20T17:41:38.559Z,19.27
2019-04-20T17:44:01.485Z,19.15
2019-04-20T17:46:23.692Z,18.91
2019-04-20T17:48:58.442Z,18.71
2019-04-20T17:51:27.743Z,18.64
2019-04-20T17:53:44.609Z,18.60
2019-04-20T17:56:05.113Z,18.55
2019-04-20T17:58:35.053Z,18.46
2019-04-20T18:01:00.305Z,18.32
2019-04-20T18:04:05.451Z,18.12
2019-04-20T18:06:17.312Z,18.03
2019-04-20T18:08:45.865Z,17.95
2019-04-20T18:11:03.776Z,17.90
2019-04-20T18:13:26.015Z,17.63
2019-04-20T18:16:13.621Z,17.57
2019-04-20T18:18:33.283Z,17.42
2019-04-20T18:20:45.884Z,17.10
2019-04-20T18:23:13.389Z,16.83
2019-04-20T18:26:07.885Z,16.71
2019-04-20T18:28:18.526Z,16.63
2019-04-20T18:30:43.581Z,16.58
2019-04-20T18:33:05.407Z,16.46
2019-04-20T18:35:34.826Z,16.37
2019-04-20T18:38:04.640Z,16.45
2019-04-20T18:40:36.463Z,16.38
2019-04-20T18:43:04.907Z,16.37
2019-04-20T18:45:39.508Z,16.23
2019-04-20T18:48:13.042Z,16.06
2019-04-20T18:50:27.757Z,16.00
2019-04-20T18:52:49.898Z,16.20
2019-04-20T18:55:22.289Z,16.31
2019-04-20T18:57:44.659Z,16.63
2019-04-20T19:00:18.428Z,16.39
2019-04-20T19:02:46.863Z,16.16
2019-04-20T19:05:09.293Z,16.18
2019-04-20T19:07:41.480Z,15.99
2019-04-20T19:10:14.339Z,15.76
2019-04-20T19:12:41.427Z,15.73
2019-04-20T19:15:28.205Z,15.71
2019-04-20T19:17:45.234Z,15.70
2019-04-20T19:20:04.124Z,15.89
2019-04-20T19:22:30.285Z,15.95
2019-04-20T19:24:56.391Z,16.14
2019-04-20T19:27:30.271Z,16.16
2019-04-20T19:29:59.673Z,16.07
2019-04-20T19:32:34.447Z,16.27
2019-04-20T19:35:03.872Z,16.00
2019-04-20T19:37:26.079Z,16.18
2019-04-20T19:40:00.993Z,15.98
2019-04-20T19:42:33.179Z,15.88
2019-04-20T19:44:56.512Z,15.88
2019-04-20T19:47:35.317Z,15.97
2019-04-20T19:49:56.118Z,15.89
2019-04-20T19:54:56.837Z,15.71
2019-04-20T19:57:24.060Z,15.63
2019-04-20T19:59:39.882Z,15.62
2019-04-20T20:02:01.036Z,15.41
2019-04-20T20:04:32.168Z,14.92
2019-04-20T20:07:03.238Z,15.19
2019-04-20T20:09:26.002Z,14.97
2019-04-20T20:11:56.096Z,14.97
2019-04-20T20:14:28.296Z,15.00
2019-04-20T20:17:03.891Z,14.92
2019-04-20T20:19:32.883Z,14.86
2019-04-20T20:22:00.372Z,14.29
2019-04-20T20:24:17.429Z,14.29
2019-04-20T20:26:52.602Z,14.03
2019-04-20T20:29:23.115Z,13.88
2019-04-20T20:31:53.942Z,13.90
2019-04-20T20:34:17.037Z,14.00
2019-04-20T20:36:47.203Z,14.00
2019-04-20T20:39:14.674Z,13.85
2019-04-20T20:41:51.330Z,13.73
2019-04-20T20:44:22.579Z,13.64
2019-04-20T20:46:51.185Z,13.54
2019-04-20T20:49:21.208Z,13.39
2019-04-20T20:51:54.590Z,13.28
2019-04-20T20:54:09.927Z,13.12
2019-04-20T20:56:34.181Z,12.87
2019-04-20T20:59:04.083Z,12.68
2019-04-20T21:01:27.984Z,12.65
2019-04-20T21:03:54.703Z,12.53
2019-04-20T21:06:22.448Z,12.49
2019-04-20T21:08:53.648Z,12.55
2019-04-20T21:11:23.430Z,12.54
2019-04-20T21:14:04.990Z,12.62
2019-04-20T21:16:36.394Z,12.60
2019-04-20T21:19:20.199Z,12.56
2019-04-20T21:21:42.234Z,12.51
2019-04-20T21:24:03.158Z,12.47
2019-04-20T21:26:30.451Z,12.40
2019-04-20T21:28:52.312Z,12.22
2019-04-20T21:31:23.696Z,12.06
2019-04-20T21:33:47.112Z,11.97
2019-04-20T21:36:18.388Z,11.76
2019-04-20T21:38:44.335Z,11.86
2019-04-20T21:41:15.085Z,11.65
2019-04-20T21:43:41.165Z,11.72
2019-04-20T21:46:10.124Z,11.47
2019-04-20T21:48:51.649Z,11.34
2019-04-20T21:51:22.876Z,11.23
2019-04-20T21:53:33.595Z,11.17
2019-04-20T21:55:59.841Z,11.11
2019-04-20T21:58:32.439Z,11.12
2019-04-20T22:01:25.279Z,11.22
2019-04-20T22:03:48.042Z,11.32
2019-04-20T22:06:16.241Z,11.30
2019-04-20T22:08:45.924Z,11.32
2019-04-20T22:11:11.587Z,11.35
2019-04-20T22:13:42.091Z,11.34
2019-04-20T22:16:10.526Z,11.26
2019-04-20T22:18:48.166Z,11.23
2019-04-20T22:21:12.813Z,11.17
2019-04-20T22:23:49.233Z,11.07
2019-04-20T22:26:12.058Z,10.97
2019-04-20T22:28:27.693Z,10.93
2019-04-20T22:30:53.963Z,10.83
2019-04-20T22:33:23.695Z,10.78
2019-04-20T22:35:54.947Z,10.78
2019-04-20T22:38:18.877Z,10.76
2019-04-20T22:40:44.771Z,10.66
2019-04-20T22:43:12.463Z,10.57
2019-04-20T22:45:44.053Z,10.55
2019-04-20T22:48:09.059Z,10.60
2019-04-20T22:50:50.917Z,10.78
2019-04-20T22:53:21.667Z,11.03
2019-04-20T22:55:57.435Z,11.30
2019-04-20T22:58:09.874Z,11.46
2019-04-20T23:00:38.632Z,11.54
2019-04-20T23:03:14.702Z,11.56
2019-04-20T23:05:42.664Z,11.46
2019-04-20T23:08:10.840Z,11.21
2019-04-20T23:10:40.012Z,11.12
2019-04-20T23:13:05.781Z,11.17
2019-04-20T23:15:32.621Z,11.22
2019-04-20T23:18:00.078Z,11.36
2019-04-20T23:20:30.806Z,11.05
2019-04-20T23:22:54.889Z,10.98
2019-04-20T23:25:21.318Z,10.99
2019-04-20T23:27:51.244Z,11.02
2019-04-20T23:30:23.343Z,11.07
2019-04-20T23:32:44.616Z,11.07
2019-04-20T23:35:16.023Z,10.72
2019-04-20T23:37:41.551Z,10.36
2019-04-20T23:40:10.032Z,10.14
2019-04-20T23:42:40.408Z,10.09
2019-04-20T23:45:05.687Z,10.25
2019-04-20T23:47:32.220Z,10.23
2019-04-20T23:50:15.305Z,9.98
2019-04-20T23:52:49.094Z,10.04
2019-04-20T23:55:02.991Z,10.22
2019-04-20T23:57:24.393Z,10.37
2019-04-20T23:59:51.995Z,10.26
